sensor_id;sensor_type;location;lat;lon;timestamp;temperature;humidity
42615;DHT22;28754;47.700;7.924;2022-12-15T00:02:09;2.20;99.90
42615;DHT22;28754;47.700;7.924;2022-12-15T00:05:15;2.20;99.90
42615;DHT22;28754;47.700;7.924;2022-12-15T00:08:20;2.30;99.90
42615;DHT22;28754;47.700;7.924;2022-12-15T00:11:25;2.40;99.90
42615;DHT22;28754;47.700;7.924;2022-12-15T00:14:30;2.50;99.90
42615;DHT22;28754;47.700;7.924;2022-12-15T00:17:35;2.60;99.90
42615;DHT22;28754;47.700;7.924;2022-12-15T00:20:40;2.60;99.90
42615;DHT22;28754;47.700;7.924;2022-12-15T00:23:45;2.60;99.90
42615;DHT22;28754;47.700;7.924;2022-12-15T00:26:50;2.70;99.90
42615;DHT22;28754;47.700;7.924;2022-12-15T00:29:55;2.70;99.90
42615;DHT22;28754;47.700;7.924;2022-12-15T00:33:07;2.70;99.90
42615;DHT22;28754;47.700;7.924;2022-12-15T00:36:14;2.80;99.90
42615;DHT22;28754;47.700;7.924;2022-12-15T00:39:19;2.80;99.90
42615;DHT22;28754;47.700;7.924;2022-12-15T00:42:06;2.80;99.90
42615;DHT22;28754;47.700;7.924;2022-12-15T00:44:54;2.80;99.90
42615;DHT22;28754;47.700;7.924;2022-12-15T00:47:44;2.90;99.90
42615;DHT22;28754;47.700;7.924;2022-12-15T00:50:30;2.90;99.90
42615;DHT22;28754;47.700;7.924;2022-12-15T00:53:36;2.90;99.90
42615;DHT22;28754;47.700;7.924;2022-12-15T00:56:42;2.90;99.90
42615;DHT22;28754;47.700;7.924;2022-12-15T00:59:46;3.00;99.90
42615;DHT22;28754;47.700;7.924;2022-12-15T01:02:51;2.90;99.90
42615;DHT22;28754;47.700;7.924;2022-12-15T01:05:56;2.80;99.90
42615;DHT22;28754;47.700;7.924;2022-12-15T01:09:02;2.70;99.90
42615;DHT22;28754;47.700;7.924;2022-12-15T01:12:08;2.70;99.90
42615;DHT22;28754;47.700;7.924;2022-12-15T01:15:13;2.70;99.90
42615;DHT22;28754;47.700;7.924;2022-12-15T01:18:19;2.40;99.90
42615;DHT22;28754;47.700;7.924;2022-12-15T01:21:24;2.20;99.90
42615;DHT22;28754;47.700;7.924;2022-12-15T01:24:11;2.10;99.90
42615;DHT22;28754;47.700;7.924;2022-12-15T01:26:58;2.30;99.90
42615;DHT22;28754;47.700;7.924;2022-12-15T01:29:44;2.40;99.90
42615;DHT22;28754;47.700;7.924;2022-12-15T01:32:31;2.40;99.90
42615;DHT22;28754;47.700;7.924;2022-12-15T01:35:19;2.50;99.90
42615;DHT22;28754;47.700;7.924;2022-12-15T01:38:07;2.40;99.90
42615;DHT22;28754;47.700;7.924;2022-12-15T01:40:59;2.50;99.90
42615;DHT22;28754;47.700;7.924;2022-12-15T01:43:48;2.40;99.90
42615;DHT22;28754;47.700;7.924;2022-12-15T01:46:35;2.40;99.90
42615;DHT22;28754;47.700;7.924;2022-12-15T01:49:27;2.50;99.90
42615;DHT22;28754;47.700;7.924;2022-12-15T01:52:17;2.50;99.90
42615;DHT22;28754;47.700;7.924;2022-12-15T01:55:04;2.60;99.90
42615;DHT22;28754;47.700;7.924;2022-12-15T01:57:53;2.50;99.90
42615;DHT22;28754;47.700;7.924;2022-12-15T02:00:46;2.40;99.90
42615;DHT22;28754;47.700;7.924;2022-12-15T02:03:33;2.30;99.90
42615;DHT22;28754;47.700;7.924;2022-12-15T02:06:21;2.10;99.90
42615;DHT22;28754;47.700;7.924;2022-12-15T02:09:10;2.10;99.90
42615;DHT22;28754;47.700;7.924;2022-12-15T02:15:40;2.20;99.90
42615;DHT22;28754;47.700;7.924;2022-12-15T02:18:41;2.20;99.90
42615;DHT22;28754;47.700;7.924;2022-12-15T02:21:48;2.30;99.90
42615;DHT22;28754;47.700;7.924;2022-12-15T02:25:59;2.50;99.90
42615;DHT22;28754;47.700;7.924;2022-12-15T02:28:42;2.50;99.90
42615;DHT22;28754;47.700;7.924;2022-12-15T02:31:45;2.50;99.90
42615;DHT22;28754;47.700;7.924;2022-12-15T02:37:38;2.50;99.90
42615;DHT22;28754;47.700;7.924;2022-12-15T02:40:25;2.60;99.90
42615;DHT22;28754;47.700;7.924;2022-12-15T02:43:12;2.70;99.90
42615;DHT22;28754;47.700;7.924;2022-12-15T02:46:28;2.70;99.90
42615;DHT22;28754;47.700;7.924;2022-12-15T02:49:31;2.60;99.90
42615;DHT22;28754;47.700;7.924;2022-12-15T03:02:00;2.80;99.90
42615;DHT22;28754;47.700;7.924;2022-12-15T03:04:51;2.80;99.90
42615;DHT22;28754;47.700;7.924;2022-12-15T03:07:38;2.80;99.90
42615;DHT22;28754;47.700;7.924;2022-12-15T03:10:28;2.70;99.90
42615;DHT22;28754;47.700;7.924;2022-12-15T03:13:14;2.70;99.90
42615;DHT22;28754;47.700;7.924;2022-12-15T03:16:01;2.90;99.90
42615;DHT22;28754;47.700;7.924;2022-12-15T03:18:48;2.90;99.90
42615;DHT22;28754;47.700;7.924;2022-12-15T03:21:34;2.80;99.90
42615;DHT22;28754;47.700;7.924;2022-12-15T03:24:21;2.60;99.90
42615;DHT22;28754;47.700;7.924;2022-12-15T03:27:08;2.60;99.90
42615;DHT22;28754;47.700;7.924;2022-12-15T03:29:54;2.50;99.90
42615;DHT22;28754;47.700;7.924;2022-12-15T03:32:41;2.30;99.90
42615;DHT22;28754;47.700;7.924;2022-12-15T03:35:29;2.40;99.90
42615;DHT22;28754;47.700;7.924;2022-12-15T03:38:17;2.40;99.90
42615;DHT22;28754;47.700;7.924;2022-12-15T03:41:03;2.40;99.90
42615;DHT22;28754;47.700;7.924;2022-12-15T03:43:50;2.50;99.90
42615;DHT22;28754;47.700;7.924;2022-12-15T03:46:37;2.50;99.90
42615;DHT22;28754;47.700;7.924;2022-12-15T03:49:23;2.40;99.90
42615;DHT22;28754;47.700;7.924;2022-12-15T03:52:11;2.40;99.90
42615;DHT22;28754;47.700;7.924;2022-12-15T03:54:57;2.50;99.90
42615;DHT22;28754;47.700;7.924;2022-12-15T03:57:44;2.50;99.90
42615;DHT22;28754;47.700;7.924;2022-12-15T04:00:31;2.40;99.90
42615;DHT22;28754;47.700;7.924;2022-12-15T04:03:18;2.40;99.90
42615;DHT22;28754;47.700;7.924;2022-12-15T04:06:05;2.40;99.90
42615;DHT22;28754;47.700;7.924;2022-12-15T04:08:51;2.40;99.90
42615;DHT22;28754;47.700;7.924;2022-12-15T04:11:38;2.40;99.90
42615;DHT22;28754;47.700;7.924;2022-12-15T04:14:25;2.50;99.90
42615;DHT22;28754;47.700;7.924;2022-12-15T04:17:11;2.50;99.90
42615;DHT22;28754;47.700;7.924;2022-12-15T04:19:58;2.60;99.90
42615;DHT22;28754;47.700;7.924;2022-12-15T04:22:57;2.60;99.90
42615;DHT22;28754;47.700;7.924;2022-12-15T04:25:44;2.50;99.90
42615;DHT22;28754;47.700;7.924;2022-12-15T04:28:49;2.40;99.90
42615;DHT22;28754;47.700;7.924;2022-12-15T04:31:54;2.30;99.90
42615;DHT22;28754;47.700;7.924;2022-12-15T04:34:59;2.20;99.90
42615;DHT22;28754;47.700;7.924;2022-12-15T04:38:04;2.30;99.90
42615;DHT22;28754;47.700;7.924;2022-12-15T04:41:09;2.30;99.90
42615;DHT22;28754;47.700;7.924;2022-12-15T04:44:14;2.20;99.90
42615;DHT22;28754;47.700;7.924;2022-12-15T04:47:19;2.30;99.90
42615;DHT22;28754;47.700;7.924;2022-12-15T04:50:24;2.40;99.90
42615;DHT22;28754;47.700;7.924;2022-12-15T04:53:29;2.50;99.90
42615;DHT22;28754;47.700;7.924;2022-12-15T04:56:34;2.50;99.90
42615;DHT22;28754;47.700;7.924;2022-12-15T04:59:39;2.60;99.90
42615;DHT22;28754;47.700;7.924;2022-12-15T05:02:44;2.50;99.90
42615;DHT22;28754;47.700;7.924;2022-12-15T05:05:50;2.60;99.90
42615;DHT22;28754;47.700;7.924;2022-12-15T05:08:55;2.50;99.90
42615;DHT22;28754;47.700;7.924;2022-12-15T05:12:00;2.40;99.90
42615;DHT22;28754;47.700;7.924;2022-12-15T05:15:05;2.30;99.90
42615;DHT22;28754;47.700;7.924;2022-12-15T05:18:11;2.20;99.90
42615;DHT22;28754;47.700;7.924;2022-12-15T05:21:16;2.10;99.90
42615;DHT22;28754;47.700;7.924;2022-12-15T05:24:21;2.10;99.90
42615;DHT22;28754;47.700;7.924;2022-12-15T05:27:26;1.90;99.90
42615;DHT22;28754;47.700;7.924;2022-12-15T05:30:31;1.90;99.90
42615;DHT22;28754;47.700;7.924;2022-12-15T05:33:36;2.00;99.90
42615;DHT22;28754;47.700;7.924;2022-12-15T05:36:23;2.00;99.90
42615;DHT22;28754;47.700;7.924;2022-12-15T05:39:09;2.00;99.90
42615;DHT22;28754;47.700;7.924;2022-12-15T05:41:57;2.10;99.90
42615;DHT22;28754;47.700;7.924;2022-12-15T05:44:43;2.20;99.90
42615;DHT22;28754;47.700;7.924;2022-12-15T05:47:30;2.30;99.90
42615;DHT22;28754;47.700;7.924;2022-12-15T05:50:17;2.30;99.90
42615;DHT22;28754;47.700;7.924;2022-12-15T05:53:04;2.40;99.90
42615;DHT22;28754;47.700;7.924;2022-12-15T05:55:51;2.40;99.90
42615;DHT22;28754;47.700;7.924;2022-12-15T05:58:39;2.50;99.90
42615;DHT22;28754;47.700;7.924;2022-12-15T06:01:29;2.40;99.90
42615;DHT22;28754;47.700;7.924;2022-12-15T06:04:20;2.60;99.90
42615;DHT22;28754;47.700;7.924;2022-12-15T06:07:07;2.60;99.90
42615;DHT22;28754;47.700;7.924;2022-12-15T06:09:56;2.60;99.90
42615;DHT22;28754;47.700;7.924;2022-12-15T06:12:42;2.60;99.90
42615;DHT22;28754;47.700;7.924;2022-12-15T06:15:29;2.60;99.90
42615;DHT22;28754;47.700;7.924;2022-12-15T06:18:16;2.60;99.90
42615;DHT22;28754;47.700;7.924;2022-12-15T06:21:05;2.50;99.90
42615;DHT22;28754;47.700;7.924;2022-12-15T06:23:57;2.50;99.90
42615;DHT22;28754;47.700;7.924;2022-12-15T06:26:44;2.40;99.90
42615;DHT22;28754;47.700;7.924;2022-12-15T06:29:34;2.30;99.90
42615;DHT22;28754;47.700;7.924;2022-12-15T06:32:21;2.20;99.90
42615;DHT22;28754;47.700;7.924;2022-12-15T06:35:08;2.30;99.90
42615;DHT22;28754;47.700;7.924;2022-12-15T06:37:54;2.40;99.90
42615;DHT22;28754;47.700;7.924;2022-12-15T06:40:41;2.40;99.90
42615;DHT22;28754;47.700;7.924;2022-12-15T06:43:35;2.40;99.90
42615;DHT22;28754;47.700;7.924;2022-12-15T06:46:30;2.50;99.90
42615;DHT22;28754;47.700;7.924;2022-12-15T06:49:19;2.60;99.90
42615;DHT22;28754;47.700;7.924;2022-12-15T06:52:49;2.50;99.90
42615;DHT22;28754;47.700;7.924;2022-12-15T06:55:49;2.50;99.90
42615;DHT22;28754;47.700;7.924;2022-12-15T06:58:54;2.50;99.90
42615;DHT22;28754;47.700;7.924;2022-12-15T07:01:41;2.50;99.90
42615;DHT22;28754;47.700;7.924;2022-12-15T07:04:37;2.50;99.90
42615;DHT22;28754;47.700;7.924;2022-12-15T07:07:30;2.60;99.90
42615;DHT22;28754;47.700;7.924;2022-12-15T07:10:17;2.60;99.90
42615;DHT22;28754;47.700;7.924;2022-12-15T07:13:05;2.50;99.90
42615;DHT22;28754;47.700;7.924;2022-12-15T07:16:01;2.50;99.90
42615;DHT22;28754;47.700;7.924;2022-12-15T07:18:50;2.50;99.90
42615;DHT22;28754;47.700;7.924;2022-12-15T07:21:38;2.50;99.90
42615;DHT22;28754;47.700;7.924;2022-12-15T07:24:26;2.50;99.90
42615;DHT22;28754;47.700;7.924;2022-12-15T07:27:13;2.50;99.90
42615;DHT22;28754;47.700;7.924;2022-12-15T07:30:00;2.50;99.90
42615;DHT22;28754;47.700;7.924;2022-12-15T07:32:47;2.50;99.90
42615;DHT22;28754;47.700;7.924;2022-12-15T07:35:34;2.60;99.90
42615;DHT22;28754;47.700;7.924;2022-12-15T07:38:21;2.60;99.90
42615;DHT22;28754;47.700;7.924;2022-12-15T07:41:09;2.70;99.90
42615;DHT22;28754;47.700;7.924;2022-12-15T07:43:56;2.70;99.90
42615;DHT22;28754;47.700;7.924;2022-12-15T07:46:43;2.60;99.90
42615;DHT22;28754;47.700;7.924;2022-12-15T07:49:32;2.60;99.90
42615;DHT22;28754;47.700;7.924;2022-12-15T07:52:19;2.70;99.90
42615;DHT22;28754;47.700;7.924;2022-12-15T07:55:06;2.70;99.90
42615;DHT22;28754;47.700;7.924;2022-12-15T07:57:56;2.40;99.90
42615;DHT22;28754;47.700;7.924;2022-12-15T08:00:43;2.20;99.90
42615;DHT22;28754;47.700;7.924;2022-12-15T08:03:34;2.10;99.90
42615;DHT22;28754;47.700;7.924;2022-12-15T08:06:21;2.10;99.90
42615;DHT22;28754;47.700;7.924;2022-12-15T08:09:09;1.90;99.90
42615;DHT22;28754;47.700;7.924;2022-12-15T08:11:56;1.70;99.90
42615;DHT22;28754;47.700;7.924;2022-12-15T08:14:43;1.90;99.90
42615;DHT22;28754;47.700;7.924;2022-12-15T08:17:36;1.70;99.90
42615;DHT22;28754;47.700;7.924;2022-12-15T08:21:23;1.90;99.90
42615;DHT22;28754;47.700;7.924;2022-12-15T08:24:11;1.70;99.90
42615;DHT22;28754;47.700;7.924;2022-12-15T08:27:03;1.60;99.90
42615;DHT22;28754;47.700;7.924;2022-12-15T08:29:50;1.60;99.90
42615;DHT22;28754;47.700;7.924;2022-12-15T08:32:40;1.50;99.90
42615;DHT22;28754;47.700;7.924;2022-12-15T08:35:56;1.40;99.90
42615;DHT22;28754;47.700;7.924;2022-12-15T08:39:04;1.40;99.90
42615;DHT22;28754;47.700;7.924;2022-12-15T08:41:51;1.50;99.90
42615;DHT22;28754;47.700;7.924;2022-12-15T08:44:41;1.60;99.90
42615;DHT22;28754;47.700;7.924;2022-12-15T08:47:28;1.80;99.90
42615;DHT22;28754;47.700;7.924;2022-12-15T08:50:15;1.90;99.90
42615;DHT22;28754;47.700;7.924;2022-12-15T08:53:01;2.00;99.90
42615;DHT22;28754;47.700;7.924;2022-12-15T08:55:48;2.10;99.90
42615;DHT22;28754;47.700;7.924;2022-12-15T08:58:35;2.20;99.90
42615;DHT22;28754;47.700;7.924;2022-12-15T09:01:24;2.30;99.90
42615;DHT22;28754;47.700;7.924;2022-12-15T09:04:11;2.30;99.90
42615;DHT22;28754;47.700;7.924;2022-12-15T09:06:58;2.30;99.90
42615;DHT22;28754;47.700;7.924;2022-12-15T09:09:47;2.30;99.90
42615;DHT22;28754;47.700;7.924;2022-12-15T09:12:34;2.50;99.90
42615;DHT22;28754;47.700;7.924;2022-12-15T09:15:21;2.50;99.90
42615;DHT22;28754;47.700;7.924;2022-12-15T09:18:08;2.50;99.90
42615;DHT22;28754;47.700;7.924;2022-12-15T09:20:55;2.40;99.90
42615;DHT22;28754;47.700;7.924;2022-12-15T09:23:53;2.40;99.90
42615;DHT22;28754;47.700;7.924;2022-12-15T09:26:45;2.40;99.90
42615;DHT22;28754;47.700;7.924;2022-12-15T09:29:32;2.40;99.90
42615;DHT22;28754;47.700;7.924;2022-12-15T09:32:19;2.50;99.90
42615;DHT22;28754;47.700;7.924;2022-12-15T09:35:06;2.60;99.90
42615;DHT22;28754;47.700;7.924;2022-12-15T09:37:55;2.70;99.90
42615;DHT22;28754;47.700;7.924;2022-12-15T09:40:42;2.70;99.90
42615;DHT22;28754;47.700;7.924;2022-12-15T09:43:29;2.90;99.90
42615;DHT22;28754;47.700;7.924;2022-12-15T09:52:58;3.10;99.90
42615;DHT22;28754;47.700;7.924;2022-12-15T09:55:46;3.10;99.90
42615;DHT22;28754;47.700;7.924;2022-12-15T09:59:02;3.10;99.90
42615;DHT22;28754;47.700;7.924;2022-12-15T10:05:36;3.20;99.90
42615;DHT22;28754;47.700;7.924;2022-12-15T10:08:42;3.20;99.90
42615;DHT22;28754;47.700;7.924;2022-12-15T10:15:18;3.40;99.90
42615;DHT22;28754;47.700;7.924;2022-12-15T10:18:31;3.50;99.90
42615;DHT22;28754;47.700;7.924;2022-12-15T10:21:26;3.50;99.90
42615;DHT22;28754;47.700;7.924;2022-12-15T10:24:15;3.60;99.90
42615;DHT22;28754;47.700;7.924;2022-12-15T10:30:55;3.80;99.90
42615;DHT22;28754;47.700;7.924;2022-12-15T10:33:51;3.80;99.90
42615;DHT22;28754;47.700;7.924;2022-12-15T10:36:49;3.90;99.90
42615;DHT22;28754;47.700;7.924;2022-12-15T10:39:41;3.90;99.90
42615;DHT22;28754;47.700;7.924;2022-12-15T10:42:31;3.80;99.90
42615;DHT22;28754;47.700;7.924;2022-12-15T10:45:38;3.80;99.90
42615;DHT22;28754;47.700;7.924;2022-12-15T10:48:25;3.90;99.90
42615;DHT22;28754;47.700;7.924;2022-12-15T10:51:43;3.80;99.90
42615;DHT22;28754;47.700;7.924;2022-12-15T10:54:42;3.70;99.90
42615;DHT22;28754;47.700;7.924;2022-12-15T10:57:30;3.70;99.90
42615;DHT22;28754;47.700;7.924;2022-12-15T11:00:26;3.70;99.90
42615;DHT22;28754;47.700;7.924;2022-12-15T11:03:21;3.70;99.90
42615;DHT22;28754;47.700;7.924;2022-12-15T11:06:16;3.80;99.90
42615;DHT22;28754;47.700;7.924;2022-12-15T11:09:36;3.80;99.90
42615;DHT22;28754;47.700;7.924;2022-12-15T11:12:28;3.90;99.90
42615;DHT22;28754;47.700;7.924;2022-12-15T11:15:41;3.70;99.90
42615;DHT22;28754;47.700;7.924;2022-12-15T11:18:49;3.70;99.90
42615;DHT22;28754;47.700;7.924;2022-12-15T11:21:43;3.70;99.90
42615;DHT22;28754;47.700;7.924;2022-12-15T11:24:39;3.70;99.90
42615;DHT22;28754;47.700;7.924;2022-12-15T11:27:49;3.70;99.90
42615;DHT22;28754;47.700;7.924;2022-12-15T11:30:46;3.80;99.90
42615;DHT22;28754;47.700;7.924;2022-12-15T11:33:38;3.90;99.90
42615;DHT22;28754;47.700;7.924;2022-12-15T11:46:38;3.90;99.90
42615;DHT22;28754;47.700;7.924;2022-12-15T11:49:49;3.90;99.90
42615;DHT22;28754;47.700;7.924;2022-12-15T11:53:02;4.10;99.90
42615;DHT22;28754;47.700;7.924;2022-12-15T12:09:01;4.60;99.90
42615;DHT22;28754;47.700;7.924;2022-12-15T12:15:27;4.80;99.90
42615;DHT22;28754;47.700;7.924;2022-12-15T12:18:27;5.00;99.90
42615;DHT22;28754;47.700;7.924;2022-12-15T12:21:30;4.90;99.90
42615;DHT22;28754;47.700;7.924;2022-12-15T12:28:18;4.90;99.90
42615;DHT22;28754;47.700;7.924;2022-12-15T12:31:16;4.90;99.90
42615;DHT22;28754;47.700;7.924;2022-12-15T12:34:16;4.90;99.90
42615;DHT22;28754;47.700;7.924;2022-12-15T12:37:35;4.80;99.90
42615;DHT22;28754;47.700;7.924;2022-12-15T12:49:40;5.00;99.90
42615;DHT22;28754;47.700;7.924;2022-12-15T12:52:34;5.10;99.90
42615;DHT22;28754;47.700;7.924;2022-12-15T12:55:42;4.80;99.90
42615;DHT22;28754;47.700;7.924;2022-12-15T12:58:37;4.70;99.90
42615;DHT22;28754;47.700;7.924;2022-12-15T13:01:32;4.40;99.90
42615;DHT22;28754;47.700;7.924;2022-12-15T13:07:38;4.20;99.90
42615;DHT22;28754;47.700;7.924;2022-12-15T13:10:28;4.20;99.90
42615;DHT22;28754;47.700;7.924;2022-12-15T13:16:21;4.20;99.90
42615;DHT22;28754;47.700;7.924;2022-12-15T13:19:11;4.40;99.90
42615;DHT22;28754;47.700;7.924;2022-12-15T13:21:58;4.50;99.90
42615;DHT22;28754;47.700;7.924;2022-12-15T13:24:46;4.50;99.90
42615;DHT22;28754;47.700;7.924;2022-12-15T13:27:38;4.60;99.90
42615;DHT22;28754;47.700;7.924;2022-12-15T13:30:26;4.60;99.90
42615;DHT22;28754;47.700;7.924;2022-12-15T13:33:15;4.50;99.90
42615;DHT22;28754;47.700;7.924;2022-12-15T13:36:04;4.40;99.90
42615;DHT22;28754;47.700;7.924;2022-12-15T13:38:53;4.30;99.90
42615;DHT22;28754;47.700;7.924;2022-12-15T13:44:50;4.20;99.90
42615;DHT22;28754;47.700;7.924;2022-12-15T13:47:40;4.10;99.90
42615;DHT22;28754;47.700;7.924;2022-12-15T13:51:00;4.00;99.90
42615;DHT22;28754;47.700;7.924;2022-12-15T14:00:03;4.00;99.90
42615;DHT22;28754;47.700;7.924;2022-12-15T14:03:08;3.90;99.90
42615;DHT22;28754;47.700;7.924;2022-12-15T14:06:33;3.80;99.90
42615;DHT22;28754;47.700;7.924;2022-12-15T14:14:22;3.60;99.90
42615;DHT22;28754;47.700;7.924;2022-12-15T14:17:16;3.60;99.90
42615;DHT22;28754;47.700;7.924;2022-12-15T14:20:53;3.70;99.90
42615;DHT22;28754;47.700;7.924;2022-12-15T14:24:29;3.60;99.90
42615;DHT22;28754;47.700;7.924;2022-12-15T14:27:59;3.50;99.90
42615;DHT22;28754;47.700;7.924;2022-12-15T14:31:20;3.40;99.90
42615;DHT22;28754;47.700;7.924;2022-12-15T14:37:23;3.30;99.90
42615;DHT22;28754;47.700;7.924;2022-12-15T14:40:18;3.30;99.90
42615;DHT22;28754;47.700;7.924;2022-12-15T14:44:10;3.30;99.90
42615;DHT22;28754;47.700;7.924;2022-12-15T14:51:40;3.10;99.90
42615;DHT22;28754;47.700;7.924;2022-12-15T14:54:58;3.00;99.90
42615;DHT22;28754;47.700;7.924;2022-12-15T14:57:51;2.90;99.90
42615;DHT22;28754;47.700;7.924;2022-12-15T15:00:50;2.80;99.90
42615;DHT22;28754;47.700;7.924;2022-12-15T15:03:39;2.70;99.90
42615;DHT22;28754;47.700;7.924;2022-12-15T15:06:33;2.60;99.90
42615;DHT22;28754;47.700;7.924;2022-12-15T15:09:26;2.60;99.90
42615;DHT22;28754;47.700;7.924;2022-12-15T15:12:21;2.50;99.90
42615;DHT22;28754;47.700;7.924;2022-12-15T15:15:15;2.40;99.90
42615;DHT22;28754;47.700;7.924;2022-12-15T15:18:04;2.20;99.90
42615;DHT22;28754;47.700;7.924;2022-12-15T15:20:57;2.20;99.90
42615;DHT22;28754;47.700;7.924;2022-12-15T15:30:22;2.40;99.90
42615;DHT22;28754;47.700;7.924;2022-12-15T15:41:35;2.50;99.90
42615;DHT22;28754;47.700;7.924;2022-12-15T15:44:22;2.60;99.90
42615;DHT22;28754;47.700;7.924;2022-12-15T15:47:24;2.70;99.90
42615;DHT22;28754;47.700;7.924;2022-12-15T15:50:33;2.70;99.90
42615;DHT22;28754;47.700;7.924;2022-12-15T15:53:41;2.80;99.90
42615;DHT22;28754;47.700;7.924;2022-12-15T15:56:54;2.90;99.90
42615;DHT22;28754;47.700;7.924;2022-12-15T16:09:13;3.00;99.90
42615;DHT22;28754;47.700;7.924;2022-12-15T16:21:53;2.90;99.90
42615;DHT22;28754;47.700;7.924;2022-12-15T16:24:54;2.60;99.90
42615;DHT22;28754;47.700;7.924;2022-12-15T16:27:51;2.50;99.90
42615;DHT22;28754;47.700;7.924;2022-12-15T16:30:41;2.30;99.90
42615;DHT22;28754;47.700;7.924;2022-12-15T16:33:28;2.10;99.90
42615;DHT22;28754;47.700;7.924;2022-12-15T16:36:15;2.10;99.90
42615;DHT22;28754;47.700;7.924;2022-12-15T16:39:03;2.00;99.90
42615;DHT22;28754;47.700;7.924;2022-12-15T16:41:54;2.00;99.90
42615;DHT22;28754;47.700;7.924;2022-12-15T16:44:45;2.00;99.90
42615;DHT22;28754;47.700;7.924;2022-12-15T16:47:31;2.00;99.90
42615;DHT22;28754;47.700;7.924;2022-12-15T16:50:36;1.90;99.90
42615;DHT22;28754;47.700;7.924;2022-12-15T16:53:41;2.00;99.90
42615;DHT22;28754;47.700;7.924;2022-12-15T16:56:34;2.00;99.90
42615;DHT22;28754;47.700;7.924;2022-12-15T17:11:18;2.50;99.90
42615;DHT22;28754;47.700;7.924;2022-12-15T17:14:20;2.60;99.90
42615;DHT22;28754;47.700;7.924;2022-12-15T17:17:34;2.50;99.90
42615;DHT22;28754;47.700;7.924;2022-12-15T17:20:39;2.30;99.90
42615;DHT22;28754;47.700;7.924;2022-12-15T17:23:30;2.20;99.90
42615;DHT22;28754;47.700;7.924;2022-12-15T17:26:27;2.20;99.90
42615;DHT22;28754;47.700;7.924;2022-12-15T17:29:44;2.10;99.90
42615;DHT22;28754;47.700;7.924;2022-12-15T17:46:49;2.00;99.90
42615;DHT22;28754;47.700;7.924;2022-12-15T17:50:00;1.90;99.90
42615;DHT22;28754;47.700;7.924;2022-12-15T17:53:17;1.90;99.90
42615;DHT22;28754;47.700;7.924;2022-12-15T17:56:09;2.00;99.90
42615;DHT22;28754;47.700;7.924;2022-12-15T17:58:59;2.00;99.90
42615;DHT22;28754;47.700;7.924;2022-12-15T18:01:46;2.00;99.90
42615;DHT22;28754;47.700;7.924;2022-12-15T18:04:33;2.00;99.90
42615;DHT22;28754;47.700;7.924;2022-12-15T18:07:22;2.10;99.90
42615;DHT22;28754;47.700;7.924;2022-12-15T18:10:34;2.20;99.90
42615;DHT22;28754;47.700;7.924;2022-12-15T18:13:25;2.20;99.90
42615;DHT22;28754;47.700;7.924;2022-12-15T18:16:13;2.20;99.90
42615;DHT22;28754;47.700;7.924;2022-12-15T18:19:41;2.30;99.90
42615;DHT22;28754;47.700;7.924;2022-12-15T18:22:28;2.40;99.90
42615;DHT22;28754;47.700;7.924;2022-12-15T18:25:24;2.40;99.90
42615;DHT22;28754;47.700;7.924;2022-12-15T18:28:29;2.40;99.90
42615;DHT22;28754;47.700;7.924;2022-12-15T18:31:26;2.40;99.90
42615;DHT22;28754;47.700;7.924;2022-12-15T18:34:19;2.40;99.90
42615;DHT22;28754;47.700;7.924;2022-12-15T18:37:23;2.50;99.90
42615;DHT22;28754;47.700;7.924;2022-12-15T18:40:20;2.40;99.90
42615;DHT22;28754;47.700;7.924;2022-12-15T18:43:28;2.40;99.90
42615;DHT22;28754;47.700;7.924;2022-12-15T18:46:40;2.40;99.90
42615;DHT22;28754;47.700;7.924;2022-12-15T18:49:27;2.40;99.90
42615;DHT22;28754;47.700;7.924;2022-12-15T18:52:19;2.50;99.90
42615;DHT22;28754;47.700;7.924;2022-12-15T18:55:20;2.60;99.90
42615;DHT22;28754;47.700;7.924;2022-12-15T19:02:00;2.60;99.90
42615;DHT22;28754;47.700;7.924;2022-12-15T19:04:47;2.70;99.90
42615;DHT22;28754;47.700;7.924;2022-12-15T19:07:34;2.70;99.90
42615;DHT22;28754;47.700;7.924;2022-12-15T19:10:22;2.70;99.90
42615;DHT22;28754;47.700;7.924;2022-12-15T19:13:13;2.70;99.90
42615;DHT22;28754;47.700;7.924;2022-12-15T19:16:02;2.70;99.90
42615;DHT22;28754;47.700;7.924;2022-12-15T19:18:52;2.60;99.90
42615;DHT22;28754;47.700;7.924;2022-12-15T19:21:57;2.70;99.90
42615;DHT22;28754;47.700;7.924;2022-12-15T19:25:03;2.70;99.90
42615;DHT22;28754;47.700;7.924;2022-12-15T19:27:51;2.70;99.90
42615;DHT22;28754;47.700;7.924;2022-12-15T19:30:43;2.80;99.90
42615;DHT22;28754;47.700;7.924;2022-12-15T19:33:30;2.70;99.90
42615;DHT22;28754;47.700;7.924;2022-12-15T19:36:21;2.80;99.90
42615;DHT22;28754;47.700;7.924;2022-12-15T19:39:18;2.80;99.90
42615;DHT22;28754;47.700;7.924;2022-12-15T19:42:16;2.80;99.90
42615;DHT22;28754;47.700;7.924;2022-12-15T19:45:16;2.80;99.90
42615;DHT22;28754;47.700;7.924;2022-12-15T19:48:08;2.80;99.90
42615;DHT22;28754;47.700;7.924;2022-12-15T19:50:57;2.90;99.90
42615;DHT22;28754;47.700;7.924;2022-12-15T19:53:45;2.80;99.90
42615;DHT22;28754;47.700;7.924;2022-12-15T19:56:33;2.70;99.90
42615;DHT22;28754;47.700;7.924;2022-12-15T19:59:27;2.40;99.90
42615;DHT22;28754;47.700;7.924;2022-12-15T20:02:18;2.30;99.90
42615;DHT22;28754;47.700;7.924;2022-12-15T20:12:38;1.50;99.90
42615;DHT22;28754;47.700;7.924;2022-12-15T20:17:10;1.40;99.90
42615;DHT22;28754;47.700;7.924;2022-12-15T20:21:06;1.50;99.90
42615;DHT22;28754;47.700;7.924;2022-12-15T23:34:24;0.90;99.90
42615;DHT22;28754;47.700;7.924;2022-12-15T23:37:11;1.00;99.90
42615;DHT22;28754;47.700;7.924;2022-12-15T23:39:58;0.90;99.90
42615;DHT22;28754;47.700;7.924;2022-12-15T23:42:44;0.80;99.90
42615;DHT22;28754;47.700;7.924;2022-12-15T23:45:31;0.70;99.90
42615;DHT22;28754;47.700;7.924;2022-12-15T23:48:18;0.80;99.90
42615;DHT22;28754;47.700;7.924;2022-12-15T23:51:14;0.90;99.90
42615;DHT22;28754;47.700;7.924;2022-12-15T23:54:02;1.10;99.90
42615;DHT22;28754;47.700;7.924;2022-12-15T23:56:49;1.20;99.90
42615;DHT22;28754;47.700;7.924;2022-12-15T23:59:35;1.20;99.90
